Time;durP1;ratioP1;P1;durP2;ratioP2;P2;SDS_P1;SDS_P2;PMS_P1;PMS_P2;Temp;Humidity;BMP_temperature;BMP_pressure;BME280_temperature;BME280_humidity;BME280_pressure;Samples;Min_cycle;Max_cycle;Signal;HPM_P1;HPM_P2
2022/06/10 00:00:06;;;;;;;1.03;1.03;;;22.30;67.50;;;;;;5088358;27;43391;-68
2022/06/10 00:02:34;;;;;;;1.00;1.00;;;22.30;67.10;;;;;;5088412;27;44081;-68
2022/06/10 00:05:02;;;;;;;1.10;1.10;;;22.30;66.90;;;;;;5087883;27;43817;-69
2022/06/10 00:07:34;;;;;;;1.20;1.20;;;22.30;67.00;;;;;;5088299;27;44066;-69
2022/06/10 00:10:02;;;;;;;0.90;0.90;;;22.10;67.20;;;;;;5088117;27;44013;-69
2022/06/10 00:12:30;;;;;;;0.93;0.93;;;22.00;67.70;;;;;;5088500;27;43900;-68
2022/06/10 00:14:58;;;;;;;1.10;1.10;;;21.80;68.10;;;;;;5088051;27;45089;-69
2022/06/10 00:17:26;;;;;;;1.10;1.10;;;21.60;68.60;;;;;;5087942;27;44075;-69
2022/06/10 00:19:54;;;;;;;0.90;0.90;;;21.40;69.00;;;;;;5087599;27;43929;-69
2022/06/10 00:22:22;;;;;;;1.03;1.03;;;21.30;69.40;;;;;;5088335;27;43976;-69
2022/06/10 00:24:51;;;;;;;0.90;0.90;;;21.20;69.50;;;;;;5087941;27;43948;-69
2022/06/10 00:27:19;;;;;;;0.90;0.90;;;21.20;69.90;;;;;;5087918;27;43404;-68
2022/06/10 00:29:48;;;;;;;0.97;0.97;;;21.10;70.10;;;;;;5088004;27;43465;-69
2022/06/10 00:32:17;;;;;;;1.10;1.10;;;21.10;70.30;;;;;;5087968;27;43880;-69
2022/06/10 00:34:45;;;;;;;1.10;1.10;;;21.00;70.30;;;;;;5090375;27;43624;-67
2022/06/10 00:37:13;;;;;;;1.13;1.13;;;21.00;70.40;;;;;;5088737;27;45152;-68
2022/06/10 00:39:41;;;;;;;1.10;1.10;;;21.00;70.50;;;;;;5107390;27;43962;-68
2022/06/10 00:42:11;;;;;;;0.90;0.90;;;21.00;70.60;;;;;;5097982;27;43926;-69
2022/06/10 00:44:41;;;;;;;1.00;1.00;;;20.90;70.50;;;;;;5068954;27;45696;-68
2022/06/10 00:47:15;;;;;;;1.00;1.00;;;20.90;70.60;;;;;;5068927;27;45116;-69
2022/06/10 00:49:45;;;;;;;0.90;0.90;;;20.90;70.60;;;;;;5087728;27;43815;-68
2022/06/10 00:52:19;;;;;;;0.90;0.90;;;20.90;70.70;;;;;;5086817;27;43983;-68
2022/06/10 00:54:49;;;;;;;0.80;0.80;;;20.90;70.70;;;;;;5087397;27;43776;-68
2022/06/10 00:57:20;;;;;;;1.10;1.10;;;20.90;70.70;;;;;;5087049;27;44041;-69
2022/06/10 00:59:49;;;;;;;0.80;0.80;;;20.90;70.70;;;;;;5100413;27;43915;-68
2022/06/10 01:02:19;;;;;;;0.90;0.90;;;20.90;71.30;;;;;;5107718;27;43938;-69
2022/06/10 01:04:51;;;;;;;1.20;1.20;;;21.00;71.30;;;;;;5086862;28;44008;-70
2022/06/10 01:07:23;;;;;;;0.90;0.90;;;21.20;70.80;;;;;;5087149;27;43989;-69
2022/06/10 01:09:51;;;;;;;1.00;1.00;;;21.30;70.20;;;;;;5087316;27;43990;-69
2022/06/10 01:12:33;;;;;;;1.00;1.00;;;21.50;69.80;;;;;;5087513;27;43489;-70
2022/06/10 01:15:12;;;;;;;1.00;1.00;;;21.70;69.20;;;;;;5087407;27;44025;-70
2022/06/10 01:17:48;;;;;;;0.90;0.90;;;21.80;68.60;;;;;;5087161;27;44035;-71
2022/06/10 01:20:23;;;;;;;1.00;1.00;;;22.00;68.20;;;;;;5087225;27;43950;-69
2022/06/10 01:23:18;;;;;;;0.80;0.80;;;22.10;67.80;;;;;;5087503;27;43857;-71
2022/06/10 01:26:16;;;;;;;1.10;1.10;;;22.20;67.30;;;;;;5086953;27;44943;-70
2022/06/10 01:29:10;;;;;;;0.90;0.90;;;22.40;67.00;;;;;;5095528;27;44153;-70
2022/06/10 01:31:41;;;;;;;0.90;0.90;;;22.40;66.70;;;;;;5088068;27;43403;-70
2022/06/10 01:34:16;;;;;;;0.97;0.97;;;22.40;66.60;;;;;;5106991;27;43974;-69
2022/06/10 01:36:49;;;;;;;0.97;0.97;;;22.30;66.90;;;;;;5106760;27;43925;-69
2022/06/10 01:39:24;;;;;;;0.97;0.97;;;22.10;67.30;;;;;;5106346;27;43986;-70
2022/06/10 01:41:53;;;;;;;0.87;0.87;;;21.80;67.60;;;;;;5093719;27;43975;-70
2022/06/10 01:44:28;;;;;;;1.00;1.00;;;21.70;68.10;;;;;;5106479;27;44153;-70
2022/06/10 01:47:02;;;;;;;0.70;0.70;;;21.50;68.70;;;;;;5106381;27;44713;-69
2022/06/10 01:49:35;;;;;;;0.90;0.90;;;21.40;69.10;;;;;;5105928;27;44010;-70
2022/06/10 01:52:05;;;;;;;0.93;0.93;;;21.20;69.50;;;;;;5106378;27;43943;-70
2022/06/10 01:54:46;;;;;;;1.10;1.10;;;21.20;69.70;;;;;;5088107;27;43949;-69
2022/06/10 01:57:15;;;;;;;1.00;1.00;;;21.10;69.90;;;;;;5106419;27;43944;-71
2022/06/10 01:59:45;;;;;;;1.00;1.00;;;21.00;70.00;;;;;;5106456;27;44102;-69
2022/06/10 02:02:17;;;;;;;1.03;1.03;;;21.00;70.10;;;;;;5106926;27;44042;-69
2022/06/10 02:04:48;;;;;;;0.90;0.90;;;21.00;70.30;;;;;;5110284;27;43933;-70
2022/06/10 02:07:18;;;;;;;0.80;0.80;;;20.90;70.30;;;;;;5090029;27;43737;-69
2022/06/10 02:09:47;;;;;;;0.90;0.90;;;20.90;70.40;;;;;;5090040;27;44127;-69
2022/06/10 02:12:18;;;;;;;0.83;0.83;;;20.90;70.50;;;;;;5071806;27;43774;-69
2022/06/10 02:14:48;;;;;;;0.80;0.80;;;20.90;70.50;;;;;;5091002;27;44209;-70
2022/06/10 02:17:18;;;;;;;0.63;0.63;;;20.90;70.50;;;;;;5109392;27;44078;-70
2022/06/10 02:19:47;;;;;;;0.80;0.80;;;20.90;70.60;;;;;;5109183;27;44131;-69
2022/06/10 02:22:17;;;;;;;0.87;0.87;;;20.90;71.30;;;;;;5109444;27;43404;-70
2022/06/10 02:24:46;;;;;;;1.00;1.00;;;20.90;70.60;;;;;;5109985;27;44005;-69
2022/06/10 02:27:15;;;;;;;0.90;0.90;;;20.90;70.60;;;;;;5109419;27;45157;-70
2022/06/10 02:29:46;;;;;;;0.80;0.80;;;20.90;70.60;;;;;;5109561;27;43753;-70
2022/06/10 02:32:14;;;;;;;0.80;0.80;;;20.90;70.70;;;;;;5109505;27;43789;-70
2022/06/10 02:34:43;;;;;;;0.97;0.97;;;20.90;71.10;;;;;;5109889;27;43947;-70
2022/06/10 02:37:17;;;;;;;0.90;0.90;;;21.00;71.20;;;;;;5109656;27;44259;-70
2022/06/10 02:39:46;;;;;;;0.90;0.90;;;21.10;70.80;;;;;;5108994;27;43363;-69
2022/06/10 02:42:15;;;;;;;0.90;0.90;;;21.30;70.20;;;;;;5109416;27;43978;-70
2022/06/10 02:44:49;;;;;;;0.70;0.70;;;21.50;69.80;;;;;;5109925;27;43844;-69
2022/06/10 02:47:19;;;;;;;1.07;1.07;;;21.60;69.10;;;;;;5109007;27;43963;-69
2022/06/10 02:49:48;;;;;;;0.80;0.80;;;21.80;68.60;;;;;;5108898;27;43969;-69
2022/06/10 02:52:16;;;;;;;0.83;0.83;;;22.00;68.10;;;;;;5109243;27;43793;-69
2022/06/10 02:54:47;;;;;;;0.80;0.80;;;22.10;67.70;;;;;;5109442;27;43954;-70
2022/06/10 02:57:17;;;;;;;0.80;0.80;;;22.20;67.40;;;;;;5089866;27;45804;-68
2022/06/10 03:02:41;;;;;;;0.83;0.83;;;22.30;66.90;;;;;;5108893;27;44030;-70
2022/06/10 03:05:22;;;;;;;0.90;0.90;;;22.20;67.20;;;;;;5090681;27;43943;-69
2022/06/10 03:07:58;;;;;;;0.80;0.80;;;22.00;67.60;;;;;;5108860;27;43996;-69
2022/06/10 03:10:28;;;;;;;1.10;1.10;;;21.70;67.70;;;;;;5108739;27;43929;-70
2022/06/10 03:13:08;;;;;;;0.90;0.90;;;21.50;68.20;;;;;;5090199;27;43304;-70
2022/06/10 03:15:47;;;;;;;0.83;0.70;;;21.40;68.80;;;;;;5108372;27;43451;-70
2022/06/10 03:18:21;;;;;;;1.70;0.80;;;21.20;69.10;;;;;;5108399;27;43979;-70
2022/06/10 03:20:53;;;;;;;1.00;1.00;;;21.20;69.50;;;;;;5108367;27;43964;-70
2022/06/10 03:23:24;;;;;;;1.00;1.00;;;21.10;69.80;;;;;;5108673;27;43909;-69
2022/06/10 03:25:54;;;;;;;0.80;0.80;;;21.00;70.00;;;;;;5106895;27;43534;-70
2022/06/10 03:28:23;;;;;;;1.00;1.00;;;21.00;70.20;;;;;;5108606;27;43687;-68
2022/06/10 03:30:55;;;;;;;0.90;0.90;;;20.90;70.20;;;;;;5108508;27;43363;-70
2022/06/10 03:33:26;;;;;;;0.97;0.97;;;20.90;70.30;;;;;;5108635;27;44078;-70
2022/06/10 03:35:56;;;;;;;0.77;0.77;;;20.90;70.40;;;;;;5090571;27;43889;-69
2022/06/10 03:38:26;;;;;;;0.93;0.93;;;20.90;70.50;;;;;;5102526;27;45165;-69
2022/06/10 03:40:55;;;;;;;0.90;0.90;;;20.80;70.50;;;;;;5088691;27;44071;-70
2022/06/10 03:43:32;;;;;;;0.93;0.93;;;20.90;70.50;;;;;;5102091;27;43999;-69
2022/06/10 03:46:02;;;;;;;0.83;0.83;;;20.90;70.60;;;;;;5088790;28;43418;-69
2022/06/10 03:48:32;;;;;;;1.00;1.00;;;20.80;70.50;;;;;;5087899;28;43972;-71
2022/06/10 03:51:01;;;;;;;0.80;0.80;;;20.80;70.50;;;;;;5088184;28;43349;-69
2022/06/10 03:53:29;;;;;;;0.97;0.97;;;20.80;70.50;;;;;;5087963;28;44006;-69
2022/06/10 03:55:57;;;;;;;0.90;0.90;;;20.80;70.90;;;;;;5087993;27;43906;-70
2022/06/10 03:58:25;;;;;;;0.93;0.93;;;20.90;71.20;;;;;;5088196;28;43926;-70
2022/06/10 04:00:53;;;;;;;0.80;0.80;;;21.00;71.00;;;;;;5088049;28;43752;-71
2022/06/10 04:03:22;;;;;;;0.93;0.93;;;21.20;70.50;;;;;;5087990;28;44049;-70
2022/06/10 04:05:54;;;;;;;3.93;1.10;;;21.30;69.60;;;;;;5069890;28;44168;-69
2022/06/10 04:08:43;;;;;;;0.87;0.87;;;21.50;68.80;;;;;;5069809;28;47174;-70
2022/06/10 04:11:12;;;;;;;0.93;0.93;;;21.70;68.40;;;;;;5088223;27;43312;-69
2022/06/10 04:13:40;;;;;;;0.80;0.80;;;21.90;68.10;;;;;;5088342;27;44019;-70
2022/06/10 04:16:10;;;;;;;1.00;1.00;;;22.00;67.70;;;;;;5088743;27;43392;-70
2022/06/10 04:18:38;;;;;;;0.80;0.80;;;22.10;67.30;;;;;;5069509;28;44988;-69
2022/06/10 04:21:06;;;;;;;0.80;0.80;;;22.20;67.00;;;;;;5099872;27;44033;-70
2022/06/10 04:23:34;;;;;;;1.00;1.00;;;22.30;66.70;;;;;;5095996;27;43429;-70
2022/06/10 04:26:05;;;;;;;0.90;0.90;;;22.30;66.40;;;;;;5069804;28;43532;-69
2022/06/10 04:28:33;;;;;;;0.90;0.90;;;22.30;66.50;;;;;;5069739;28;44172;-70
2022/06/10 04:31:01;;;;;;;0.80;0.80;;;22.20;66.90;;;;;;5087900;27;43958;-70
2022/06/10 04:33:29;;;;;;;0.80;0.80;;;22.00;67.40;;;;;;5087957;27;43831;-69
2022/06/10 04:35:57;;;;;;;0.70;0.70;;;21.80;67.60;;;;;;5088221;27;44052;-70
2022/06/10 04:38:26;;;;;;;0.87;0.87;;;21.60;68.00;;;;;;5087875;27;44032;-70
2022/06/10 04:40:54;;;;;;;0.77;0.77;;;21.40;68.40;;;;;;5088003;27;44301;-70
2022/06/10 04:43:24;;;;;;;0.80;0.80;;;21.30;68.80;;;;;;5087962;27;43927;-70
2022/06/10 04:45:54;;;;;;;0.70;0.70;;;21.20;69.10;;;;;;5087887;27;43978;-70
2022/06/10 04:48:22;;;;;;;0.70;0.70;;;21.10;69.40;;;;;;5093625;27;43875;-69
2022/06/10 04:50:50;;;;;;;0.90;0.90;;;21.10;69.60;;;;;;5087229;28;44128;-70
2022/06/10 04:53:18;;;;;;;0.70;0.70;;;21.00;69.80;;;;;;5087380;28;43877;-69
2022/06/10 04:55:46;;;;;;;0.90;0.90;;;21.00;69.90;;;;;;5094026;27;43791;-70
2022/06/10 04:58:14;;;;;;;0.90;0.90;;;20.90;70.00;;;;;;5107524;27;44002;-70
2022/06/10 05:00:47;;;;;;;0.90;0.90;;;20.90;70.80;;;;;;5087551;27;43446;-70
2022/06/10 05:03:17;;;;;;;0.80;0.80;;;20.90;70.20;;;;;;5087277;28;43951;-69
2022/06/10 05:05:47;;;;;;;0.93;0.93;;;20.90;70.30;;;;;;5087729;28;43963;-69
2022/06/10 05:08:17;;;;;;;0.90;0.90;;;20.90;71.00;;;;;;5087079;28;43960;-70
2022/06/10 05:10:45;;;;;;;0.80;0.80;;;20.90;70.40;;;;;;5086792;28;43872;-70
2022/06/10 05:13:13;;;;;;;0.80;0.80;;;20.90;70.40;;;;;;5073513;28;43930;-70
2022/06/10 05:15:41;;;;;;;0.80;0.80;;;20.80;70.30;;;;;;5087422;28;44001;-69
2022/06/10 05:18:16;;;;;;;1.00;1.00;;;20.90;70.50;;;;;;5101366;27;43967;-70
2022/06/10 05:20:45;;;;;;;0.83;0.83;;;20.90;70.40;;;;;;5107198;27;43376;-70
2022/06/10 05:23:14;;;;;;;0.90;0.90;;;20.90;70.40;;;;;;5098357;27;43955;-70
2022/06/10 05:25:42;;;;;;;0.93;0.93;;;20.80;70.60;;;;;;5087954;27;43930;-70
2022/06/10 05:28:11;;;;;;;0.90;0.90;;;20.90;71.10;;;;;;5084811;27;46276;-69
2022/06/10 05:30:39;;;;;;;0.70;0.70;;;21.00;70.80;;;;;;5106582;27;43860;-70
2022/06/10 05:33:08;;;;;;;0.80;0.80;;;21.20;70.40;;;;;;5106859;27;43856;-69
2022/06/10 05:35:37;;;;;;;1.20;1.20;;;21.40;70.50;;;;;;5097882;27;44053;-69
2022/06/10 05:38:06;;;;;;;0.70;0.70;;;21.50;69.30;;;;;;5105195;27;44799;-69
2022/06/10 05:40:34;;;;;;;1.00;1.00;;;21.70;68.70;;;;;;5110018;27;44001;-70
2022/06/10 05:43:02;;;;;;;0.90;0.90;;;21.80;68.20;;;;;;5110188;27;44015;-70
2022/06/10 05:45:37;;;;;;;0.80;0.80;;;22.00;67.80;;;;;;5110907;27;43911;-70
2022/06/10 05:48:06;;;;;;;1.00;1.00;;;22.00;67.30;;;;;;5091269;27;46854;-69
2022/06/10 05:50:36;;;;;;;0.90;0.90;;;22.10;67.40;;;;;;5109930;27;43319;-69
2022/06/10 05:53:07;;;;;;;0.80;0.80;;;22.00;67.50;;;;;;5109985;27;43942;-69
2022/06/10 05:55:39;;;;;;;0.80;0.80;;;21.70;67.70;;;;;;5110201;27;43935;-71
2022/06/10 05:58:08;;;;;;;0.80;0.80;;;21.50;68.00;;;;;;5109662;27;43919;-70
2022/06/10 06:00:37;;;;;;;0.90;0.90;;;21.40;68.60;;;;;;5109884;27;44047;-69
2022/06/10 06:03:05;;;;;;;0.90;0.90;;;21.20;69.00;;;;;;5109719;27;43960;-69
2022/06/10 06:05:35;;;;;;;0.73;0.73;;;21.10;69.40;;;;;;5110552;27;43493;-71
2022/06/10 06:08:05;;;;;;;0.87;0.87;;;21.10;69.60;;;;;;5109844;27;43785;-69
2022/06/10 06:10:33;;;;;;;0.90;0.90;;;21.00;69.90;;;;;;5110034;27;43339;-69
2022/06/10 06:13:01;;;;;;;0.80;0.80;;;20.90;70.00;;;;;;5103457;27;43908;-69
2022/06/10 06:15:29;;;;;;;0.87;0.87;;;20.90;70.20;;;;;;5090605;27;44001;-70
2022/06/10 06:17:59;;;;;;;0.80;0.80;;;20.90;70.30;;;;;;5071589;28;46285;-70
2022/06/10 06:20:27;;;;;;;0.80;0.80;;;20.80;70.30;;;;;;5089994;27;43892;-69
2022/06/10 06:22:55;;;;;;;0.90;0.90;;;20.80;70.50;;;;;;5096831;27;44059;-69
2022/06/10 06:25:25;;;;;;;0.80;0.80;;;20.80;70.50;;;;;;5090372;28;43807;-70
2022/06/10 06:27:53;;;;;;;1.00;1.00;;;20.80;70.60;;;;;;5080958;28;45856;-69
2022/06/10 06:30:26;;;;;;;0.83;0.83;;;20.70;70.50;;;;;;5089548;27;43985;-69
2022/06/10 06:32:55;;;;;;;0.70;0.70;;;20.80;70.60;;;;;;5090038;27;44448;-69
2022/06/10 06:35:23;;;;;;;0.73;0.73;;;20.80;70.60;;;;;;5091012;27;43994;-70
2022/06/10 06:37:51;;;;;;;0.90;0.90;;;20.80;70.70;;;;;;5109100;27;43961;-70
2022/06/10 06:40:19;;;;;;;0.90;0.90;;;20.80;71.20;;;;;;5095231;27;44113;-70
2022/06/10 06:42:48;;;;;;;0.80;0.80;;;20.90;71.30;;;;;;5089620;27;43902;-70
2022/06/10 06:45:17;;;;;;;0.70;0.70;;;21.00;70.90;;;;;;5090151;27;43904;-69
2022/06/10 06:47:52;;;;;;;1.00;1.00;;;21.20;70.40;;;;;;5089337;27;45051;-69
2022/06/10 06:50:23;;;;;;;0.80;0.80;;;21.30;69.80;;;;;;5088169;27;43414;-70
2022/06/10 06:52:51;;;;;;;1.00;1.00;;;21.50;69.30;;;;;;5089294;27;43340;-69
2022/06/10 06:55:20;;;;;;;0.83;0.83;;;21.70;68.80;;;;;;5089811;27;44013;-70
2022/06/10 06:57:50;;;;;;;0.80;0.80;;;21.80;68.30;;;;;;5089159;27;43794;-70
2022/06/10 07:00:18;;;;;;;0.80;0.80;;;22.00;67.90;;;;;;5089259;27;43759;-70
2022/06/10 07:02:46;;;;;;;0.80;0.80;;;22.00;67.50;;;;;;5099174;27;43931;-69
2022/06/10 07:05:14;;;;;;;0.80;0.80;;;22.10;67.20;;;;;;5099783;27;43928;-70
2022/06/10 07:07:43;;;;;;;0.70;0.70;;;22.10;67.00;;;;;;5092628;27;43926;-69
2022/06/10 07:10:11;;;;;;;0.80;0.80;;;22.10;67.20;;;;;;5108972;27;43995;-70
2022/06/10 07:12:39;;;;;;;0.80;0.80;;;21.90;67.50;;;;;;5074122;27;43791;-70
2022/06/10 07:15:09;;;;;;;0.90;0.90;;;21.70;67.80;;;;;;5089504;27;44019;-70
2022/06/10 07:17:37;;;;;;;0.90;0.90;;;21.50;68.30;;;;;;5089330;27;44028;-71
2022/06/10 07:20:07;;;;;;;0.70;0.70;;;21.30;68.80;;;;;;5088937;27;43970;-69
2022/06/10 07:22:35;;;;;;;0.90;0.90;;;21.20;69.20;;;;;;5089401;27;43883;-69
2022/06/10 07:25:03;;;;;;;0.90;0.90;;;21.10;69.50;;;;;;5089587;27;43954;-69
2022/06/10 07:27:31;;;;;;;0.80;0.80;;;21.00;69.80;;;;;;5106055;27;44043;-69
2022/06/10 07:30:05;;;;;;;0.90;0.90;;;20.90;69.90;;;;;;5090979;27;43924;-69
2022/06/10 07:32:34;;;;;;;0.87;0.87;;;20.90;70.10;;;;;;5107056;27;43831;-70
2022/06/10 07:35:02;;;;;;;0.80;0.80;;;20.90;70.40;;;;;;5108712;27;44035;-70
2022/06/10 07:37:30;;;;;;;0.60;0.60;;;20.80;70.40;;;;;;5103827;27;43894;-69
2022/06/10 07:39:58;;;;;;;0.80;0.80;;;20.80;70.50;;;;;;5088779;27;43931;-70
2022/06/10 07:42:25;;;;;;;0.80;0.80;;;20.80;71.30;;;;;;5093670;27;43967;-70
2022/06/10 07:44:54;;;;;;;0.80;0.80;;;20.80;70.60;;;;;;5108832;27;43982;-70
2022/06/10 07:47:23;;;;;;;0.80;0.80;;;20.70;70.60;;;;;;5107927;27;44867;-69
2022/06/10 07:49:52;;;;;;;0.73;0.73;;;20.70;70.70;;;;;;5108230;27;43980;-70
2022/06/10 07:52:20;;;;;;;0.80;0.80;;;20.70;70.70;;;;;;5108493;27;43971;-70
2022/06/10 07:54:49;;;;;;;0.87;0.87;;;20.70;70.70;;;;;;5108856;27;43620;-70
2022/06/10 07:57:17;;;;;;;0.70;0.70;;;20.70;70.70;;;;;;5089273;27;47350;-69
2022/06/10 07:59:45;;;;;;;0.70;0.70;;;20.70;70.80;;;;;;5089451;27;43847;-69
2022/06/10 08:02:13;;;;;;;0.70;0.70;;;20.70;71.40;;;;;;5088672;27;43380;-70
2022/06/10 08:04:41;;;;;;;0.90;0.90;;;20.70;71.40;;;;;;5107727;27;44036;-70
2022/06/10 08:07:11;;;;;;;0.70;0.70;;;20.90;71.40;;;;;;5107928;27;43994;-70
2022/06/10 08:09:39;;;;;;;0.70;0.70;;;21.00;70.70;;;;;;5107748;27;44030;-70
2022/06/10 08:12:10;;;;;;;0.80;0.80;;;21.20;70.20;;;;;;5108078;27;44036;-70
2022/06/10 08:14:38;;;;;;;0.60;0.60;;;21.40;69.70;;;;;;5089800;27;43843;-69
2022/06/10 08:17:07;;;;;;;0.73;0.73;;;21.60;69.10;;;;;;5107477;27;44941;-69
2022/06/10 08:19:35;;;;;;;0.70;0.70;;;21.70;68.60;;;;;;5088490;27;43845;-69
2022/06/10 08:24:51;;;;;;;0.90;0.90;;;22.00;67.80;;;;;;5083412;27;43565;-69
2022/06/10 08:27:19;;;;;;;1.07;1.07;;;22.00;67.50;;;;;;5103559;27;44160;-70
2022/06/10 08:29:47;;;;;;;0.80;0.80;;;21.90;67.70;;;;;;5107566;27;43915;-70
2022/06/10 08:32:18;;;;;;;0.80;0.80;;;21.70;67.90;;;;;;5107795;27;44072;-69
2022/06/10 08:34:47;;;;;;;0.80;0.80;;;21.50;68.30;;;;;;5108111;27;43963;-70
2022/06/10 08:37:15;;;;;;;0.80;0.80;;;21.30;68.70;;;;;;5107926;27;43969;-70
2022/06/10 08:39:43;;;;;;;0.90;0.90;;;21.20;69.20;;;;;;5086587;27;45123;-70
2022/06/10 08:42:36;;;;;;;0.70;0.70;;;21.10;69.50;;;;;;5069533;27;43947;-70
2022/06/10 08:45:13;;;;;;;1.03;1.03;;;21.00;69.90;;;;;;5088421;27;43977;-70
2022/06/10 08:47:59;;;;;;;0.80;0.80;;;20.90;70.10;;;;;;5087426;27;43672;-70
2022/06/10 08:50:54;;;;;;;0.90;0.90;;;20.90;70.40;;;;;;5085668;27;44694;-69
2022/06/10 08:53:47;;;;;;;0.77;0.77;;;20.80;70.50;;;;;;5087922;27;43935;-69
2022/06/10 08:56:18;;;;;;;0.90;0.90;;;20.80;70.60;;;;;;5087596;28;43970;-70
2022/06/10 08:58:54;;;;;;;0.80;0.80;;;20.70;70.60;;;;;;5086970;28;44106;-69
2022/06/10 09:01:22;;;;;;;0.90;0.90;;;20.70;70.70;;;;;;5087358;28;44157;-69
2022/06/10 09:03:52;;;;;;;0.90;0.90;;;20.70;70.80;;;;;;5087197;28;43825;-70
2022/06/10 09:06:23;;;;;;;0.80;0.80;;;20.70;70.80;;;;;;5087554;28;44185;-69
2022/06/10 09:08:51;;;;;;;0.80;0.80;;;20.70;71.60;;;;;;5086579;28;43929;-70
2022/06/10 09:11:22;;;;;;;0.73;0.73;;;20.70;71.60;;;;;;5075276;28;46107;-69
2022/06/10 09:13:53;;;;;;;0.87;0.87;;;20.70;70.90;;;;;;5086653;28;43915;-69
2022/06/10 09:16:28;;;;;;;0.80;0.80;;;20.70;71.10;;;;;;5087809;27;44078;-70
2022/06/10 09:19:01;;;;;;;0.90;0.90;;;20.70;71.40;;;;;;5100866;27;43931;-69
2022/06/10 09:21:32;;;;;;;0.80;0.80;;;20.90;71.30;;;;;;5092542;27;43858;-69
2022/06/10 09:24:03;;;;;;;0.80;0.80;;;21.00;70.80;;;;;;5087601;27;43844;-69
2022/06/10 09:26:35;;;;;;;0.70;0.70;;;21.20;70.30;;;;;;5089991;27;43506;-70
2022/06/10 09:29:04;;;;;;;0.80;0.80;;;21.30;69.60;;;;;;5106780;27;43959;-69
2022/06/10 09:31:39;;;;;;;0.90;0.90;;;21.50;69.10;;;;;;5107017;27;43427;-69
2022/06/10 09:34:21;;;;;;;0.70;0.70;;;21.70;68.70;;;;;;5106795;27;44044;-68
2022/06/10 09:36:55;;;;;;;0.70;0.70;;;21.80;68.20;;;;;;5107312;27;44088;-70
2022/06/10 09:42:18;;;;;;;0.80;0.80;;;22.00;67.40;;;;;;5087442;27;43857;-70
2022/06/10 09:44:51;;;;;;;0.87;0.87;;;22.00;67.10;;;;;;5087075;27;43994;-69
2022/06/10 09:47:24;;;;;;;0.80;0.80;;;22.00;67.30;;;;;;5087305;27;43842;-69
2022/06/10 09:50:14;;;;;;;0.80;0.80;;;21.90;68.40;;;;;;5105899;27;43961;-70
2022/06/10 09:52:48;;;;;;;0.70;0.70;;;21.60;68.00;;;;;;5106746;27;44003;-69
2022/06/10 09:55:34;;;;;;;0.80;0.80;;;21.40;68.50;;;;;;5106655;27;43859;-70
2022/06/10 09:58:41;;;;;;;1.43;0.80;;;21.20;69.00;;;;;;5106348;27;43355;-69
2022/06/10 10:01:14;;;;;;;0.80;0.80;;;21.10;69.50;;;;;;5106139;27;43881;-69
2022/06/10 10:03:52;;;;;;;0.97;0.97;;;21.00;69.80;;;;;;5106664;27;43463;-69
2022/06/10 10:06:29;;;;;;;0.80;0.80;;;20.90;70.10;;;;;;5106275;27;43772;-70
2022/06/10 10:09:01;;;;;;;0.83;0.83;;;20.90;70.30;;;;;;5087112;27;44044;-68
2022/06/10 10:11:33;;;;;;;0.80;0.80;;;20.90;70.50;;;;;;5086869;27;44021;-69
2022/06/10 10:14:04;;;;;;;0.90;0.90;;;20.80;70.60;;;;;;5100099;27;44047;-70
2022/06/10 10:16:44;;;;;;;0.70;0.70;;;20.80;70.60;;;;;;5086799;27;43979;-70
2022/06/10 10:19:25;;;;;;;0.80;0.80;;;20.80;70.80;;;;;;5097282;27;43334;-69
2022/06/10 10:21:58;;;;;;;0.97;0.97;;;20.80;70.80;;;;;;5106150;27;43990;-69
2022/06/10 10:24:39;;;;;;;0.70;0.70;;;20.70;70.60;;;;;;5096361;27;43958;-70
2022/06/10 10:27:11;;;;;;;0.90;0.90;;;20.70;70.70;;;;;;5090018;27;43936;-70
2022/06/10 10:29:40;;;;;;;0.90;0.90;;;20.70;70.70;;;;;;5090531;27;43901;-70
2022/06/10 10:32:14;;;;;;;0.90;0.90;;;20.70;70.70;;;;;;5089560;27;43666;-70
2022/06/10 10:34:44;;;;;;;1.13;1.13;;;20.70;70.80;;;;;;5105258;27;43978;-70
2022/06/10 10:37:23;;;;;;;0.87;0.87;;;20.70;70.80;;;;;;5109559;27;43967;-70
2022/06/10 10:39:52;;;;;;;0.90;0.90;;;20.70;71.00;;;;;;5110146;27;44083;-70
2022/06/10 10:42:21;;;;;;;0.90;0.90;;;20.80;71.50;;;;;;5109304;27;43954;-70
2022/06/10 10:44:57;;;;;;;0.73;0.73;;;20.90;71.10;;;;;;5109071;27;43385;-70
2022/06/10 10:47:31;;;;;;;0.73;0.73;;;21.10;70.60;;;;;;5109456;27;44370;-69
2022/06/10 10:50:16;;;;;;;0.90;0.90;;;21.30;70.10;;;;;;5090618;27;43907;-69
2022/06/10 10:52:50;;;;;;;0.70;0.70;;;21.50;69.60;;;;;;5098343;27;43988;-70
2022/06/10 10:55:25;;;;;;;0.70;0.70;;;21.60;68.90;;;;;;5107118;27;43867;-69
2022/06/10 10:58:02;;;;;;;0.80;0.80;;;21.80;68.50;;;;;;5089246;27;43848;-70
2022/06/10 11:00:33;;;;;;;0.90;0.90;;;21.90;68.00;;;;;;5090433;27;43923;-70
2022/06/10 11:03:02;;;;;;;0.90;0.90;;;22.00;67.80;;;;;;5077378;28;45663;-69
2022/06/10 11:05:36;;;;;;;0.90;0.90;;;21.90;67.70;;;;;;5089411;27;43920;-69
2022/06/10 11:08:19;;;;;;;0.90;0.90;;;21.80;68.00;;;;;;5109000;27;44255;-69
2022/06/10 11:11:07;;;;;;;0.90;0.90;;;21.60;68.40;;;;;;5109339;27;43912;-69
2022/06/10 11:13:47;;;;;;;0.90;0.90;;;21.40;68.90;;;;;;5090672;27;46195;-70
2022/06/10 11:16:36;;;;;;;1.20;1.20;;;21.20;69.30;;;;;;5097003;27;44116;-69
2022/06/10 11:19:39;;;;;;;1.10;1.10;;;21.10;69.60;;;;;;5089153;27;43934;-70
2022/06/10 11:22:29;;;;;;;1.00;1.00;;;21.00;70.00;;;;;;5089514;27;43994;-70
2022/06/10 11:25:26;;;;;;;0.93;0.93;;;20.90;70.20;;;;;;5089050;27;43916;-69
2022/06/10 11:28:03;;;;;;;0.90;0.90;;;20.80;70.40;;;;;;5089209;27;44051;-70
2022/06/10 11:30:37;;;;;;;0.90;0.90;;;20.80;70.60;;;;;;5104004;27;44047;-70
2022/06/10 11:33:06;;;;;;;0.90;0.90;;;20.80;70.70;;;;;;5102296;27;43891;-70
2022/06/10 11:35:37;;;;;;;0.90;0.90;;;20.80;70.80;;;;;;5100755;27;44978;-70
2022/06/10 11:38:06;;;;;;;1.10;1.10;;;20.80;70.90;;;;;;5108616;27;43936;-69
2022/06/10 11:40:40;;;;;;;1.60;1.00;;;20.80;70.90;;;;;;5108999;27;43974;-70
2022/06/10 11:43:15;;;;;;;1.00;1.00;;;20.70;70.90;;;;;;5091652;27;43941;-70
2022/06/10 11:45:44;;;;;;;1.00;1.00;;;20.70;70.90;;;;;;5070275;28;47348;-70
2022/06/10 11:48:16;;;;;;;1.00;1.00;;;20.70;70.90;;;;;;5088749;27;43992;-70
2022/06/10 11:50:51;;;;;;;1.00;1.00;;;20.70;70.90;;;;;;5070115;28;44089;-69
2022/06/10 11:53:21;;;;;;;0.90;0.90;;;20.70;71.40;;;;;;5095202;27;43888;-70
2022/06/10 11:59:42;;;;;;;0.80;0.80;;;20.90;71.50;;;;;;5088085;28;44895;-70
2022/06/10 12:01:26;;;;;;;0.80;0.80;;;21.20;70.50;;;;;;5094022;27;43400;-70
2022/06/10 12:03:55;;;;;;;0.90;0.90;;;21.30;69.90;;;;;;5108162;27;43859;-70
2022/06/10 12:06:27;;;;;;;0.90;0.90;;;21.50;69.60;;;;;;5108276;27;43856;-70
2022/06/10 13:03:33;;;;;;;0.90;0.90;;;20.70;70.90;;;;;;5084462;27;44085;-69
2022/06/10 13:06:23;;;;;;;0.90;0.90;;;20.80;71.80;;;;;;5095553;27;43975;-71
2022/06/10 13:08:53;;;;;;;1.00;1.00;;;20.80;71.20;;;;;;5087324;27;45023;-69
2022/06/10 13:11:33;;;;;;;0.90;0.90;;;20.80;71.20;;;;;;5096159;27;43939;-70
2022/06/10 13:14:25;;;;;;;0.90;0.90;;;20.80;71.10;;;;;;5100421;27;43908;-70
2022/06/10 13:17:15;;;;;;;1.00;1.00;;;20.80;71.20;;;;;;5094162;27;44013;-70
2022/06/10 13:20:02;;;;;;;0.90;0.90;;;21.00;71.10;;;;;;5087547;27;43904;-70
2022/06/10 13:22:32;;;;;;;0.90;0.90;;;21.20;70.60;;;;;;5087354;27;43981;-70
2022/06/10 13:25:22;;;;;;;0.90;0.90;;;21.30;69.90;;;;;;5087262;27;43999;-70
2022/06/10 13:27:50;;;;;;;1.17;0.93;;;21.50;69.40;;;;;;5087824;27;43889;-70
2022/06/10 13:30:21;;;;;;;3.70;1.00;;;21.60;68.90;;;;;;5087394;27;43698;-70
2022/06/10 13:32:52;;;;;;;1.23;0.90;;;21.80;68.60;;;;;;5103487;27;43443;-70
2022/06/10 13:35:22;;;;;;;1.13;0.77;;;21.90;68.20;;;;;;5107025;27;43938;-70
2022/06/10 13:37:56;;;;;;;1.13;0.80;;;21.90;67.90;;;;;;5090317;27;44019;-70
2022/06/10 13:40:26;;;;;;;0.97;0.87;;;21.90;68.00;;;;;;5087836;27;43941;-70
2022/06/10 13:42:56;;;;;;;0.90;0.90;;;21.70;68.10;;;;;;5091569;27;43925;-70
2022/06/10 13:45:25;;;;;;;1.03;1.03;;;21.50;68.40;;;;;;5098363;27;43958;-70
2022/06/10 13:47:55;;;;;;;0.80;0.80;;;21.40;69.00;;;;;;5089963;27;43424;-69
2022/06/10 13:50:40;;;;;;;0.90;0.90;;;21.20;69.40;;;;;;5086873;27;43733;-70
2022/06/10 13:53:20;;;;;;;1.10;1.10;;;21.10;69.70;;;;;;5089903;27;43886;-70
2022/06/10 13:55:53;;;;;;;1.13;1.03;;;21.00;69.60;;;;;;5106633;27;43935;-70
2022/06/10 13:58:22;;;;;;;1.83;1.00;;;20.90;69.60;;;;;;5089123;27;44147;-69
2022/06/10 14:00:51;;;;;;;0.80;0.80;;;20.90;69.70;;;;;;5098046;27;45125;-69
2022/06/10 14:03:26;;;;;;;1.13;1.03;;;20.90;69.80;;;;;;5090095;27;43925;-69
2022/06/10 14:05:57;;;;;;;0.80;0.80;;;20.80;69.90;;;;;;5097020;27;44310;-70
2022/06/10 14:08:26;;;;;;;1.10;1.10;;;20.80;69.90;;;;;;5097136;27;44012;-69
2022/06/10 14:10:53;;;;;;;1.10;1.10;;;20.80;70.00;;;;;;5090220;27;43823;-69
2022/06/10 14:13:23;;;;;;;0.93;0.93;;;20.80;70.00;;;;;;5090090;27;43993;-69
2022/06/10 14:15:52;;;;;;;0.93;0.93;;;20.80;70.10;;;;;;5097221;27;44045;-70
2022/06/10 14:18:23;;;;;;;1.00;1.00;;;20.80;70.10;;;;;;5091442;27;44337;-70